createdAt,value
2019-01-10T00:02:13.848Z,100137.58
2019-01-10T00:04:41.403Z,100149.66
2019-01-10T00:07:08.910Z,100155.41
2019-01-10T00:09:36.365Z,100160.28
2019-01-10T00:12:03.857Z,100156.05
2019-01-10T00:14:34.968Z,100157.25
2019-01-10T00:17:02.566Z,100156.89
2019-01-10T00:19:30.231Z,100151.41
2019-01-10T00:21:57.849Z,100148.61
2019-01-10T00:24:25.330Z,100150.00
2019-01-10T00:26:52.802Z,100153.38
2019-01-10T00:29:20.274Z,100153.51
2019-01-10T00:31:47.720Z,100159.81
2019-01-10T00:34:15.188Z,100164.19
2019-01-10T00:36:42.636Z,100171.53
2019-01-10T00:39:10.898Z,100180.81
2019-01-10T00:41:39.687Z,100172.55
2019-01-10T00:44:07.159Z,100177.02
2019-01-10T00:46:34.598Z,100173.19
2019-01-10T00:49:02.139Z,100177.06
2019-01-10T00:51:29.578Z,100176.88
2019-01-10T00:53:57.290Z,100177.41
2019-01-10T00:56:24.699Z,100176.14
2019-01-10T00:58:52.826Z,100172.67
2019-01-10T01:01:20.327Z,100169.74
2019-01-10T01:03:48.029Z,100172.98
2019-01-10T01:06:15.756Z,100181.12
2019-01-10T01:08:43.150Z,100184.38
2019-01-10T01:11:12.408Z,100186.08
2019-01-10T01:13:39.900Z,100183.06
2019-01-10T01:16:07.393Z,100189.97
2019-01-10T01:18:34.874Z,100190.45
2019-01-10T01:21:02.330Z,100201.31
2019-01-10T01:23:29.863Z,100199.17
2019-01-10T01:25:57.338Z,100206.95
2019-01-10T01:28:24.885Z,100204.64
2019-01-10T01:30:52.339Z,100208.19
2019-01-10T01:33:19.758Z,100211.73
2019-01-10T01:35:47.246Z,100209.66
2019-01-10T01:38:14.718Z,100211.73
2019-01-10T01:40:42.180Z,100218.17
2019-01-10T01:43:09.679Z,100214.89
2019-01-10T01:45:38.526Z,100218.47
2019-01-10T01:48:06.142Z,100222.27
2019-01-10T01:50:33.634Z,100232.50
2019-01-10T01:53:01.113Z,100237.80
2019-01-10T01:55:28.558Z,100233.17
2019-01-10T01:57:56.028Z,100237.77
2019-01-10T02:00:23.473Z,100241.00
2019-01-10T02:02:50.946Z,100237.70
2019-01-10T02:05:18.452Z,100244.07
2019-01-10T02:07:45.909Z,100247.52
2019-01-10T02:10:14.098Z,100240.28
2019-01-10T02:12:41.557Z,100247.66
2019-01-10T02:15:09.016Z,100252.51
2019-01-10T02:17:36.466Z,100246.20
2019-01-10T02:20:04.139Z,100248.45
2019-01-10T02:22:31.583Z,100250.63
2019-01-10T02:24:59.035Z,100256.29
2019-01-10T02:27:26.503Z,100255.50
2019-01-10T02:29:54.999Z,100259.30
2019-01-10T02:32:22.488Z,100261.21
2019-01-10T02:34:49.927Z,100258.25
2019-01-10T02:37:17.397Z,100264.47
2019-01-10T02:39:44.892Z,100268.83
2019-01-10T02:42:12.305Z,100269.47
2019-01-10T02:44:39.784Z,100263.52
2019-01-10T02:47:07.226Z,100266.92
2019-01-10T02:49:34.700Z,100278.55
2019-01-10T02:52:02.223Z,100273.89
2019-01-10T02:54:29.695Z,100269.56
2019-01-10T02:56:57.175Z,100267.43
2019-01-10T02:59:25.303Z,100270.65
2019-01-10T03:04:26.501Z,100272.29
2019-01-10T03:06:53.995Z,100274.97
2019-01-10T03:09:23.175Z,100263.23
2019-01-10T03:11:48.912Z,100264.01
2019-01-10T03:14:16.382Z,100266.61
2019-01-10T03:16:43.829Z,100265.59
2019-01-10T03:19:11.253Z,100275.08
2019-01-10T03:21:40.451Z,100274.69
2019-01-10T03:24:08.031Z,100273.05
2019-01-10T03:26:35.531Z,100276.53
2019-01-10T03:29:02.991Z,100278.14
2019-01-10T03:31:31.067Z,100274.27
2019-01-10T03:33:58.534Z,100272.95
2019-01-10T03:36:26.009Z,100272.42
2019-01-10T03:38:53.590Z,100272.51
2019-01-10T03:41:21.042Z,100267.55
2019-01-10T03:43:48.506Z,100261.25
2019-01-10T03:46:15.956Z,100263.05
2019-01-10T03:48:43.411Z,100260.53
2019-01-10T03:51:10.884Z,100260.94
2019-01-10T03:53:38.492Z,100254.53
2019-01-10T03:56:05.913Z,100268.75
2019-01-10T03:58:33.393Z,100267.98
2019-01-10T04:01:00.844Z,100271.95
2019-01-10T04:03:28.302Z,100270.59
2019-01-10T04:05:55.747Z,100267.70
2019-01-10T04:08:23.211Z,100265.45
2019-01-10T04:10:50.641Z,100270.59
2019-01-10T04:13:18.108Z,100272.12
2019-01-10T04:15:45.562Z,100273.12
2019-01-10T04:18:13.045Z,100277.58
2019-01-10T04:20:40.471Z,100272.94
2019-01-10T04:23:07.932Z,100275.51
2019-01-10T04:25:35.383Z,100289.72
2019-01-10T04:28:02.835Z,100281.34
2019-01-10T04:30:30.307Z,100285.95
2019-01-10T04:32:57.806Z,100284.98
2019-01-10T04:35:25.974Z,100288.67
2019-01-10T04:37:53.468Z,100289.41
2019-01-10T04:40:20.899Z,100289.20
2019-01-10T04:42:48.351Z,100288.61
2019-01-10T04:45:15.841Z,100293.30
2019-01-10T04:47:43.308Z,100292.38
2019-01-10T04:50:10.792Z,100289.58
2019-01-10T04:52:39.148Z,100293.42
2019-01-10T04:55:06.634Z,100292.77
2019-01-10T04:57:34.078Z,100288.45
2019-01-10T05:00:01.662Z,100289.95
2019-01-10T05:02:29.025Z,100291.43
2019-01-10T05:04:56.480Z,100293.67
2019-01-10T05:07:23.961Z,100294.20
2019-01-10T05:09:51.419Z,100302.30
2019-01-10T05:12:18.877Z,100302.30
2019-01-10T05:14:46.336Z,100297.09
2019-01-10T05:17:15.817Z,100298.75
2019-01-10T05:19:43.337Z,100296.52
2019-01-10T05:22:10.788Z,100299.83
2019-01-10T05:24:38.204Z,100300.16
2019-01-10T05:27:05.678Z,100299.00
2019-01-10T05:29:33.130Z,100301.45
2019-01-10T05:32:02.544Z,100304.73
2019-01-10T05:34:28.051Z,100298.03
2019-01-10T05:36:56.551Z,100297.18
2019-01-10T05:39:24.006Z,100304.17
2019-01-10T05:41:51.500Z,100305.66
2019-01-10T05:44:26.497Z,100304.34
2019-01-10T05:46:48.630Z,100305.08
2019-01-10T05:49:13.934Z,100296.05
2019-01-10T05:51:42.234Z,100293.05
2019-01-10T05:54:09.813Z,100295.97
2019-01-10T05:56:37.291Z,100295.70
2019-01-10T05:59:04.732Z,100297.14
2019-01-10T06:01:32.199Z,100304.31
2019-01-10T06:03:59.618Z,100301.02
2019-01-10T06:06:27.052Z,100301.52
2019-01-10T06:08:54.510Z,100306.30
2019-01-10T06:11:21.957Z,100321.19
2019-01-10T06:13:49.425Z,100324.38
2019-01-10T06:16:16.849Z,100320.86
2019-01-10T06:18:44.304Z,100322.31
2019-01-10T06:21:11.756Z,100325.11
2019-01-10T06:23:39.504Z,100321.87
2019-01-10T06:26:06.962Z,100322.55
2019-01-10T06:28:34.412Z,100329.56
2019-01-10T06:31:01.855Z,100332.26
2019-01-10T06:33:29.324Z,100338.22
2019-01-10T06:35:57.140Z,100344.61
2019-01-10T06:38:25.888Z,100345.91
2019-01-10T06:40:53.419Z,100351.41
2019-01-10T06:43:20.869Z,100357.63
2019-01-10T06:45:48.366Z,100355.01
2019-01-10T06:48:15.903Z,100355.84
2019-01-10T06:50:43.355Z,100353.90
2019-01-10T06:53:10.789Z,100355.16
2019-01-10T06:55:38.219Z,100361.57
2019-01-10T06:58:05.710Z,100366.45
2019-01-10T07:00:34.576Z,100361.80
2019-01-10T07:03:02.090Z,100373.41
2019-01-10T07:05:29.568Z,100371.35
2019-01-10T07:07:57.506Z,100372.63
2019-01-10T07:10:25.167Z,100375.04
2019-01-10T07:12:53.280Z,100381.30
2019-01-10T07:15:20.737Z,100378.06
2019-01-10T07:17:48.233Z,100380.61
2019-01-10T07:20:15.688Z,100377.53
2019-01-10T07:22:43.363Z,100381.56
2019-01-10T07:25:10.863Z,100381.00
2019-01-10T07:27:38.986Z,100376.04
2019-01-10T07:30:06.479Z,100372.23
2019-01-10T07:32:33.917Z,100380.21
2019-01-10T07:35:01.893Z,100386.57
2019-01-10T07:37:29.408Z,100385.81
2019-01-10T07:39:57.615Z,100381.96
2019-01-10T07:42:26.729Z,100381.56
2019-01-10T07:45:02.461Z,100393.49
2019-01-10T07:47:21.917Z,100404.27
2019-01-10T07:49:49.435Z,100400.25
2019-01-10T07:52:17.009Z,100406.08
2019-01-10T07:54:45.049Z,100405.02
2019-01-10T07:57:12.558Z,100392.44
2019-01-10T07:59:40.031Z,100397.40
2019-01-10T08:02:07.479Z,100401.30
2019-01-10T08:04:34.926Z,100400.91
2019-01-10T08:07:02.442Z,100409.36
2019-01-10T08:09:29.943Z,100410.94
2019-01-10T08:12:00.548Z,100413.58
2019-01-10T08:14:27.136Z,100407.78
2019-01-10T08:16:54.683Z,100411.03
2019-01-10T08:19:23.068Z,100418.53
2019-01-10T08:21:50.581Z,100421.95
2019-01-10T08:24:18.017Z,100426.81
2019-01-10T08:26:45.485Z,100429.75
2019-01-10T08:29:12.948Z,100435.63
2019-01-10T08:31:40.517Z,100435.58
2019-01-10T08:34:07.976Z,100437.52
2019-01-10T08:36:35.435Z,100434.14
2019-01-10T08:39:02.847Z,100440.14
2019-01-10T08:41:30.390Z,100446.25
2019-01-10T08:43:58.186Z,100448.25
2019-01-10T08:46:26.547Z,100445.76
2019-01-10T08:48:53.983Z,100454.66
2019-01-10T08:51:21.478Z,100447.98
2019-01-10T08:53:53.861Z,100452.54
2019-01-10T08:56:16.583Z,100451.37
2019-01-10T08:58:44.088Z,100445.80
2019-01-10T09:01:11.670Z,100447.16
2019-01-10T09:03:39.697Z,100449.94
2019-01-10T09:06:08.247Z,100447.73
2019-01-10T09:08:34.697Z,100441.89
2019-01-10T09:11:02.189Z,100438.66
2019-01-10T09:13:29.731Z,100440.84
2019-01-10T09:15:57.215Z,100440.45
2019-01-10T09:18:24.699Z,100447.96
2019-01-10T09:20:52.299Z,100451.86
2019-01-10T09:23:20.697Z,100457.73
2019-01-10T09:25:48.676Z,100459.45
2019-01-10T09:28:16.234Z,100456.98
2019-01-10T09:30:43.779Z,100450.37
2019-01-10T09:33:12.282Z,100455.55
2019-01-10T09:35:39.728Z,100456.02
2019-01-10T09:38:07.261Z,100454.00
2019-01-10T09:40:34.750Z,100449.05
2019-01-10T09:43:02.239Z,100468.22
2019-01-10T09:45:29.695Z,100461.64
2019-01-10T09:47:57.207Z,100467.78
2019-01-10T09:50:24.682Z,100467.52
2019-01-10T09:52:53.108Z,100474.56
2019-01-10T09:55:20.544Z,100476.07
2019-01-10T09:57:48.087Z,100475.17
2019-01-10T10:00:15.621Z,100475.20
2019-01-10T10:02:43.090Z,100477.56
2019-01-10T10:05:10.549Z,100478.92
2019-01-10T10:07:38.091Z,100484.58
2019-01-10T10:10:06.698Z,100485.95
2019-01-10T10:12:34.030Z,100485.86
2019-01-10T10:15:01.606Z,100488.33
2019-01-10T10:17:30.387Z,100485.91
2019-01-10T10:19:57.952Z,100487.91
2019-01-10T10:22:26.219Z,100491.64
2019-01-10T10:24:53.745Z,100491.02
2019-01-10T10:27:21.197Z,100489.10
2019-01-10T10:29:48.653Z,100480.66
2019-01-10T10:32:16.129Z,100480.41
2019-01-10T10:34:43.594Z,100484.77
2019-01-10T10:37:11.150Z,100486.50
2019-01-10T10:39:39.565Z,100489.14
2019-01-10T10:42:07.092Z,100493.67
2019-01-10T10:44:34.545Z,100495.63
2019-01-10T10:47:02.391Z,100486.10
2019-01-10T10:49:29.543Z,100493.91
2019-01-10T10:51:57.213Z,100488.27
2019-01-10T10:54:24.637Z,100484.98
2019-01-10T10:56:52.120Z,100496.53
2019-01-10T10:59:19.621Z,100494.13
2019-01-10T11:01:47.063Z,100492.13
2019-01-10T11:04:14.526Z,100487.39
2019-01-10T11:06:42.077Z,100482.52
2019-01-10T11:09:09.698Z,100481.37
2019-01-10T11:11:37.020Z,100488.27
2019-01-10T11:14:04.497Z,100486.97
2019-01-10T11:16:32.038Z,100487.42
2019-01-10T11:18:59.672Z,100489.93
2019-01-10T11:21:27.186Z,100484.44
2019-01-10T11:23:54.609Z,100477.99
2019-01-10T11:26:22.977Z,100479.67
2019-01-10T11:28:50.512Z,100482.75
2019-01-10T11:31:18.063Z,100481.34
2019-01-10T11:33:45.527Z,100475.85
2019-01-10T11:36:12.994Z,100467.91
2019-01-10T11:38:40.726Z,100478.00
2019-01-10T11:41:08.239Z,100470.02
2019-01-10T11:43:35.913Z,100470.06
2019-01-10T11:46:03.415Z,100468.79
2019-01-10T11:48:30.897Z,100473.53
2019-01-10T11:50:58.482Z,100464.47
2019-01-10T11:53:26.018Z,100469.48
2019-01-10T11:55:53.530Z,100461.30
2019-01-10T11:58:21.083Z,100458.98
2019-01-10T12:00:49.921Z,100458.50
2019-01-10T12:03:17.462Z,100461.34
2019-01-10T12:05:47.852Z,100462.13
2019-01-10T12:08:12.505Z,100457.52
2019-01-10T12:10:39.985Z,100461.52
2019-01-10T12:13:07.714Z,100455.85
2019-01-10T12:15:36.229Z,100457.05
2019-01-10T12:18:03.773Z,100454.37
2019-01-10T12:20:31.253Z,100458.26
2019-01-10T12:22:58.749Z,100456.70
2019-01-10T12:25:26.411Z,100453.19
2019-01-10T12:27:54.002Z,100455.03
2019-01-10T12:30:21.498Z,100447.58
2019-01-10T12:32:49.038Z,100438.25
2019-01-10T12:35:16.523Z,100440.37
2019-01-10T12:37:44.244Z,100435.67
2019-01-10T12:40:11.774Z,100428.63
2019-01-10T12:42:40.191Z,100434.69
2019-01-10T12:45:08.482Z,100430.20
2019-01-10T12:47:36.058Z,100429.11
2019-01-10T12:50:03.588Z,100431.67
2019-01-10T12:52:35.240Z,100428.05
2019-01-10T12:54:58.430Z,100429.80
2019-01-10T12:57:26.816Z,100428.13
2019-01-10T12:59:54.245Z,100426.91
2019-01-10T13:02:21.902Z,100432.04
2019-01-10T13:04:49.360Z,100428.95
2019-01-10T13:07:16.821Z,100426.95
2019-01-10T13:09:44.324Z,100432.56
2019-01-10T13:12:11.823Z,100434.94
2019-01-10T13:14:39.277Z,100429.11
2019-01-10T13:17:07.710Z,100439.56
2019-01-10T13:19:35.307Z,100432.39
2019-01-10T13:22:02.768Z,100439.88
2019-01-10T13:24:30.688Z,100435.12
2019-01-10T13:26:58.182Z,100439.38
2019-01-10T13:29:25.817Z,100441.88
2019-01-10T13:31:53.278Z,100438.17
2019-01-10T13:34:20.820Z,100437.42
2019-01-10T13:36:49.932Z,100435.15
2019-01-10T13:39:17.424Z,100439.53
2019-01-10T13:41:44.878Z,100438.56
2019-01-10T13:44:12.316Z,100444.66
2019-01-10T13:46:39.800Z,100437.63
2019-01-10T13:49:07.282Z,100449.41
2019-01-10T13:51:34.755Z,100448.17
2019-01-10T13:54:02.214Z,100456.98
2019-01-10T13:56:29.727Z,100455.67
2019-01-10T13:58:57.188Z,100453.30
2019-01-10T14:01:25.431Z,100453.20
2019-01-10T14:03:52.875Z,100447.47
2019-01-10T14:06:20.342Z,100443.51
2019-01-10T14:08:47.872Z,100449.53
2019-01-10T14:11:15.355Z,100450.82
2019-01-10T14:13:44.095Z,100451.81
2019-01-10T14:16:12.530Z,100449.27
2019-01-10T14:18:40.106Z,100451.41
2019-01-10T14:21:08.189Z,100453.42
2019-01-10T14:23:35.677Z,100449.02
2019-01-10T14:26:03.154Z,100447.70
2019-01-10T14:28:31.714Z,100450.98
2019-01-10T14:30:59.721Z,100444.73
2019-01-10T14:33:27.449Z,100445.10
2019-01-10T14:35:54.956Z,100441.80
2019-01-10T14:38:23.153Z,100442.36
2019-01-10T14:40:50.693Z,100439.12
2019-01-10T14:43:18.116Z,100439.08
2019-01-10T14:45:45.595Z,100441.98
2019-01-10T14:48:13.112Z,100443.58
2019-01-10T14:50:42.151Z,100446.69
2019-01-10T14:53:09.629Z,100449.39
2019-01-10T14:55:37.104Z,100443.81
2019-01-10T14:58:06.638Z,100444.38
2019-01-10T15:00:34.434Z,100444.94
2019-01-10T15:03:01.953Z,100443.18
2019-01-10T15:05:34.352Z,100448.13
2019-01-10T15:07:57.609Z,100448.52
2019-01-10T15:10:26.760Z,100445.67
2019-01-10T15:12:54.430Z,100439.26
2019-01-10T15:15:21.947Z,100442.14
2019-01-10T15:17:49.507Z,100442.72
2019-01-10T15:20:18.777Z,100439.63
2019-01-10T15:22:46.263Z,100450.03
2019-01-10T15:25:14.602Z,100447.64
2019-01-10T15:27:42.052Z,100450.84
2019-01-10T15:30:11.268Z,100450.58
2019-01-10T15:32:38.711Z,100448.39
2019-01-10T15:35:06.182Z,100445.05
2019-01-10T15:37:33.716Z,100443.51
2019-01-10T15:40:01.825Z,100445.59
2019-01-10T15:42:29.327Z,100445.02
2019-01-10T15:44:58.232Z,100440.94
2019-01-10T15:47:25.763Z,100451.77
2019-01-10T15:49:53.303Z,100448.83
2019-01-10T15:52:20.752Z,100448.88
2019-01-10T15:54:48.247Z,100453.84
2019-01-10T15:57:15.718Z,100459.58
2019-01-10T15:59:43.187Z,100457.91
2019-01-10T16:02:10.698Z,100457.56
2019-01-10T16:04:38.160Z,100458.44
2019-01-10T16:07:05.647Z,100458.56
2019-01-10T16:09:33.149Z,100459.67
2019-01-10T16:12:00.739Z,100459.61
2019-01-10T16:14:28.181Z,100456.08
2019-01-10T16:16:56.372Z,100459.73
2019-01-10T16:19:26.035Z,100457.46
2019-01-10T16:21:53.576Z,100455.34
2019-01-10T16:24:21.038Z,100461.44
2019-01-10T16:26:48.500Z,100459.92
2019-01-10T16:29:15.949Z,100459.44
2019-01-10T16:31:43.416Z,100459.47
2019-01-10T16:34:10.852Z,100446.55
2019-01-10T16:36:38.278Z,100448.70
2019-01-10T16:39:05.739Z,100441.38
2019-01-10T16:41:33.161Z,100453.06
2019-01-10T16:44:01.170Z,100456.02
2019-01-10T16:46:28.624Z,100451.72
2019-01-10T16:48:56.110Z,100451.26
2019-01-10T16:51:23.562Z,100453.34
2019-01-10T16:53:52.445Z,100448.56
2019-01-10T16:56:20.497Z,100456.87
2019-01-10T16:58:47.907Z,100462.25
2019-01-10T17:01:15.375Z,100452.20
2019-01-10T17:03:42.866Z,100452.34
2019-01-10T17:06:10.312Z,100455.78
2019-01-10T17:08:37.741Z,100450.28
2019-01-10T17:11:05.200Z,100456.25
2019-01-10T17:13:32.932Z,100458.95
2019-01-10T17:16:00.390Z,100457.67
2019-01-10T17:18:27.846Z,100457.59
2019-01-10T17:20:55.279Z,100456.22
2019-01-10T17:23:22.732Z,100450.73
2019-01-10T17:25:50.170Z,100452.71
2019-01-10T17:28:17.630Z,100453.53
2019-01-10T17:30:45.090Z,100456.16
2019-01-10T17:33:12.541Z,100460.13
2019-01-10T17:35:39.990Z,100455.33
2019-01-10T17:38:08.095Z,100463.23
2019-01-10T17:40:35.568Z,100471.75
2019-01-10T17:43:03.088Z,100473.77
2019-01-10T17:45:30.609Z,100472.75
2019-01-10T17:47:58.087Z,100468.47
2019-01-10T17:50:25.534Z,100464.55
2019-01-10T17:52:52.984Z,100475.38
2019-01-10T17:55:20.435Z,100473.59
2019-01-10T17:57:47.894Z,100475.19
2019-01-10T18:00:21.897Z,100475.44
2019-01-10T18:02:49.328Z,100470.57
2019-01-10T18:05:16.801Z,100468.56
2019-01-10T18:07:44.275Z,100469.55
2019-01-10T18:10:11.800Z,100468.83
2019-01-10T18:12:39.292Z,100468.68
2019-01-10T18:15:06.763Z,100467.14
2019-01-10T18:17:34.206Z,100470.32
2019-01-10T18:20:01.675Z,100465.36
2019-01-10T18:22:29.141Z,100465.36
2019-01-10T18:24:56.681Z,100470.71
2019-01-10T18:27:24.107Z,100466.64
2019-01-10T18:29:53.095Z,100469.74
2019-01-10T18:32:20.551Z,100463.80
2019-01-10T18:34:47.989Z,100469.73
2019-01-10T18:37:15.472Z,100467.82
2019-01-10T18:39:42.912Z,100465.53
2019-01-10T18:42:10.359Z,100468.94
2019-01-10T18:44:37.868Z,100472.89
2019-01-10T18:47:05.330Z,100466.78
2019-01-10T18:49:33.614Z,100473.16
2019-01-10T18:52:01.096Z,100465.73
2019-01-10T18:54:28.608Z,100469.39
2019-01-10T18:56:56.053Z,100465.53
2019-01-10T18:59:23.493Z,100469.85
2019-01-10T19:01:50.986Z,100464.80
2019-01-10T19:04:19.404Z,100469.55
2019-01-10T19:06:46.846Z,100464.64
2019-01-10T19:09:14.601Z,100468.75
2019-01-10T19:11:42.081Z,100463.47
2019-01-10T19:14:09.603Z,100464.89
2019-01-10T19:16:37.099Z,100472.22
2019-01-10T19:19:04.559Z,100469.91
2019-01-10T19:21:32.044Z,100478.07
2019-01-10T19:23:59.852Z,100476.49
2019-01-10T19:26:27.809Z,100476.83
2019-01-10T19:28:55.356Z,100467.59
2019-01-10T19:31:22.779Z,100470.97
2019-01-10T19:33:50.243Z,100466.23
2019-01-10T19:36:17.758Z,100460.69
2019-01-10T19:38:46.402Z,100467.55
2019-01-10T19:41:13.849Z,100473.16
2019-01-10T19:43:41.316Z,100463.59
2019-01-10T19:46:08.829Z,100463.83
2019-01-10T19:48:36.300Z,100457.46
2019-01-10T19:51:04.293Z,100469.66
2019-01-10T19:53:31.746Z,100469.39
2019-01-10T19:55:59.166Z,100471.37
2019-01-10T19:58:26.630Z,100476.11
2019-01-10T20:00:54.075Z,100473.12
2019-01-10T20:03:21.539Z,100481.19
2019-01-10T20:05:48.969Z,100482.98
2019-01-10T20:08:16.469Z,100473.63
2019-01-10T20:10:43.928Z,100485.97
2019-01-10T20:13:11.358Z,100480.83
2019-01-10T20:15:39.722Z,100477.05
2019-01-10T20:18:07.198Z,100467.44
2019-01-10T20:20:35.586Z,100471.50
2019-01-10T20:23:02.778Z,100477.16
2019-01-10T20:25:30.233Z,100479.53
2019-01-10T20:28:00.016Z,100476.10
2019-01-10T20:30:27.488Z,100479.18
2019-01-10T20:32:54.960Z,100474.53
2019-01-10T20:35:22.377Z,100474.95
2019-01-10T20:37:49.881Z,100478.70
2019-01-10T20:40:17.340Z,100477.03
2019-01-10T20:42:46.019Z,100473.65
2019-01-10T20:45:13.500Z,100475.44
2019-01-10T20:47:41.090Z,100475.36
2019-01-10T20:50:12.233Z,100468.31
2019-01-10T20:52:39.651Z,100474.88
2019-01-10T20:55:07.897Z,100467.47
2019-01-10T20:57:35.397Z,100471.22
2019-01-10T21:00:02.867Z,100473.01
2019-01-10T21:02:30.299Z,100469.73
2019-01-10T21:04:57.732Z,100468.61
2019-01-10T21:07:25.171Z,100472.81
2019-01-10T21:09:52.606Z,100471.45
2019-01-10T21:12:20.056Z,100471.39
2019-01-10T21:14:47.515Z,100476.63
2019-01-10T21:17:14.967Z,100474.59
2019-01-10T21:19:42.887Z,100472.59
2019-01-10T21:22:10.370Z,100474.53
2019-01-10T21:24:37.821Z,100469.45
2019-01-10T21:27:05.284Z,100463.00
2019-01-10T21:29:32.761Z,100466.22
2019-01-10T21:32:00.272Z,100463.55
2019-01-10T21:34:27.767Z,100465.59
2019-01-10T21:36:55.622Z,100460.81
2019-01-10T21:39:22.808Z,100466.59
2019-01-10T21:41:50.571Z,100464.16
2019-01-10T21:44:18.003Z,100466.60
2019-01-10T21:46:45.459Z,100465.13
2019-01-10T21:49:12.919Z,100472.52
2019-01-10T21:51:40.376Z,100474.64
2019-01-10T21:54:07.862Z,100475.57
2019-01-10T21:56:35.456Z,100476.47
2019-01-10T21:59:02.928Z,100475.67
2019-01-10T22:01:30.363Z,100472.53
2019-01-10T22:03:57.877Z,100470.13
2019-01-10T22:06:25.291Z,100472.00
2019-01-10T22:08:52.769Z,100473.77
2019-01-10T22:11:20.213Z,100467.97
2019-01-10T22:13:48.762Z,100467.41
2019-01-10T22:16:16.226Z,100467.27
2019-01-10T22:18:43.678Z,100468.03
2019-01-10T22:21:11.149Z,100467.67
2019-01-10T22:23:38.617Z,100468.91
2019-01-10T22:26:06.157Z,100464.21
2019-01-10T22:28:33.595Z,100458.03
2019-01-10T22:31:01.029Z,100451.70
2019-01-10T22:33:29.364Z,100447.71
2019-01-10T22:35:58.012Z,100455.05
2019-01-10T22:38:25.499Z,100447.65
2019-01-10T22:40:52.984Z,100454.36
2019-01-10T22:43:20.463Z,100453.13
2019-01-10T22:45:47.983Z,100450.80
2019-01-10T22:48:15.447Z,100450.91
2019-01-10T22:50:42.881Z,100446.34
2019-01-10T22:53:10.384Z,100447.95
2019-01-10T22:55:39.221Z,100448.88
2019-01-10T22:58:06.753Z,100445.77
2019-01-10T23:00:41.651Z,100445.73
2019-01-10T23:03:09.127Z,100450.83
2019-01-10T23:05:37.417Z,100446.45
2019-01-10T23:08:04.853Z,100442.13
2019-01-10T23:10:32.370Z,100440.20
2019-01-10T23:12:59.839Z,100440.32
2019-01-10T23:15:27.929Z,100448.69
2019-01-10T23:17:55.357Z,100441.78
2019-01-10T23:20:22.818Z,100441.49
2019-01-10T23:22:51.782Z,100438.06
2019-01-10T23:25:19.326Z,100434.72
2019-01-10T23:27:46.799Z,100439.12
2019-01-10T23:30:14.275Z,100435.78
2019-01-10T23:32:41.742Z,100438.39
2019-01-10T23:35:09.168Z,100434.68
2019-01-10T23:37:36.730Z,100436.66
2019-01-10T23:40:04.175Z,100430.78
2019-01-10T23:42:31.649Z,100427.10
2019-01-10T23:44:59.376Z,100432.27
2019-01-10T23:47:26.841Z,100426.11
2019-01-10T23:49:55.453Z,100428.69
2019-01-10T23:52:22.891Z,100422.86
2019-01-10T23:54:50.363Z,100425.71
2019-01-10T23:57:18.705Z,100422.69
2019-01-10T23:59:48.371Z,100420.80
